Flight Track Log - Related Links

Times and Time Zones

All times are in EDT time to prevent confusion due to time zone crossing. See the C-GDKC flight status page for this flight to view local times or setup timezone preferences in your user account.

Time Position Orientation Groundspeed Altitude Reporting Facility
EDT Latitude Longitude Course Direction KTS MPH feet Rate Location/Type
Sat 08:36:59 AM 35.8228 -83.9847 349° North 74 85 1,700  Level Indianapolis Center
Sat 08:38:00 AM 35.8444 -83.9897 349° North 76 87 2,200 443 Climbing Indianapolis Center
Sat 08:39:01 AM 35.8653 -83.9828 15° North 77 89 2,600 541 Climbing Indianapolis Center
Sat 08:40:02 AM 35.8853 -83.9672 32° Northeast 74 85 3,300 537 Climbing Indianapolis Center
Sat 08:41:04 AM 35.9025 -83.9564 27° Northeast 71 82 3,700 439 Climbing Indianapolis Center
Sat 08:42:05 AM 35.9211 -83.9475 21° North 70 81 4,200 492 Climbing Indianapolis Center
Sat 08:43:06 AM 35.9425 -83.9389 18° North 76 87 4,700 488 Climbing Indianapolis Center
Sat 08:44:08 AM 35.9625 -83.9311 17° North 76 87 5,200 390 Climbing Indianapolis Center
Sat 08:45:09 AM 35.9831 -83.9203 23° Northeast 78 90 5,500 197 Climbing Indianapolis Center
Sat 08:46:10 AM 36.0094 -83.9111 16° North 92 106 5,600 98 Climbing Indianapolis Center
Sat 08:47:12 AM 36.0408 -83.9025 13° North 108 124 5,700 49 Climbing Indianapolis Center
Sat 08:48:13 AM 36.0678 -83.8889 22° Northeast 107 123 5,700  Level Indianapolis Center
Sat 08:49:14 AM 36.0981 -83.8767 18° North 111 128 5,700 49 Level Indianapolis Center
Sat 08:50:16 AM 36.1342 -83.8656 14° North 111 128 5,800  Climbing Indianapolis Center
Sat 08:51:17 AM 36.1675 -83.8578 11° North 117 135 5,700 -49 Descending Indianapolis Center
Sat 08:52:18 AM 36.1994 -83.8458 17° North 120 138 5,700 -49 Level Indianapolis Center
Sat 08:53:20 AM 36.2311 -83.8347 16° North 119 137 5,600 -49 Descending Indianapolis Center
Sat 08:54:21 AM 36.2633 -83.8269 11° North 118 136 5,600  Level Indianapolis Center
Sat 08:55:22 AM 36.2936 -83.8108 23° Northeast 119 137 5,600  Level Indianapolis Center
Sat 08:56:24 AM 36.3250 -83.7986 17° North 118 136 5,600 -49 Level Indianapolis Center
Sat 08:57:25 AM 36.3583 -83.7850 18° North 123 142 5,500 -49 Descending Indianapolis Center
Sat 08:58:27 AM 36.3914 -83.7722 17° North 123 142 5,500  Level Indianapolis Center
Sat 08:59:28 AM 36.4283 -83.7600 15° North 117 135 5,500 49 Level Indianapolis Center
Sat 09:00:29 AM 36.4586 -83.7481 18° North 115 132 5,600 49 Climbing Indianapolis Center
Sat 09:01:31 AM 36.4914 -83.7331 20° North 123 142 5,600 -49 Level Indianapolis Center
Sat 09:02:32 AM 36.5225 -83.7150 25° Northeast 124 143 5,500 -49 Descending Indianapolis Center
Sat 09:03:34 AM 36.5525 -83.6978 25° Northeast 120 138 5,500  Level Indianapolis Center
Sat 09:04:35 AM 36.5856 -83.6819 21° North 123 142 5,500  Level Indianapolis Center
Sat 09:05:37 AM 36.6164 -83.6669 21° North 122 140 5,500  Level Indianapolis Center
Sat 09:06:39 AM 36.6464 -83.6497 25° Northeast 119 137 5,500  Level Indianapolis Center
Sat 09:07:40 AM 36.6817 -83.6294 25° Northeast 118 136 5,500  Level Indianapolis Center
Sat 09:08:42 AM 36.7122 -83.6114 25° Northeast 120 138 5,500  Level Indianapolis Center
Sat 09:09:43 AM 36.7442 -83.6017 14° North 119 137 5,500  Level Indianapolis Center
Sat 09:10:45 AM 36.7758 -83.5892 18° North 120 138 5,500  Level Indianapolis Center
Sat 09:11:46 AM 36.8067 -83.5703 26° Northeast 123 142 5,500  Level Indianapolis Center
Sat 09:12:48 AM 36.8383 -83.5586 16° North 119 137 5,500 49 Level Indianapolis Center
Sat 09:13:49 AM 36.8706 -83.5467 17° North 121 139 5,600 49 Climbing Indianapolis Center
Sat 09:14:51 AM 36.9014 -83.5294 24° Northeast 121 139 5,600 -98 Level Indianapolis Center
Sat 09:15:52 AM 36.9392 -83.5083 24° Northeast 125 144 5,400 -49 Descending Indianapolis Center
Sat 09:16:54 AM 36.9722 -83.4897 24° Northeast 128 147 5,500 48 Climbing Indianapolis Center
Sat 09:17:56 AM 37.0042 -83.4747 21° North 124 143 5,500 49 Level Indianapolis Center
Sat 09:18:57 AM 37.0364 -83.4589 21° North 123 142 5,600 49 Climbing Indianapolis Center
Sat 09:19:59 AM 37.0681 -83.4439 21° North 122 140 5,600  Level Indianapolis Center
Sat 09:21:01 AM 37.1014 -83.4333 14° North 122 140 5,600 -48 Level Indianapolis Center
Sat 09:22:03 AM 37.1342 -83.4153 24° Northeast 126 145 5,500 -98 Descending Indianapolis Center
Sat 09:23:04 AM 37.1711 -83.3886 30° Northeast 130 150 5,400 -49 Descending Indianapolis Center
Sat 09:24:06 AM 37.2022 -83.3669 29° Northeast 128 147 5,400  Level Indianapolis Center
Sat 09:25:08 AM 37.2350 -83.3481 25° Northeast 129 148 5,400 49 Level Indianapolis Center
Sat 09:26:09 AM 37.2664 -83.3292 26° Northeast 127 146 5,500  Climbing Indianapolis Center
Sat 09:27:11 AM 37.2981 -83.3086 27° Northeast 126 145 5,400  Descending Indianapolis Center
Sat 09:28:13 AM 37.3294 -83.2914 24° Northeast 126 145 5,500 48 Climbing Indianapolis Center
Sat 09:29:15 AM 37.3636 -83.2814 13° North 125 144 5,500  Level Indianapolis Center
Sat 09:30:16 AM 37.4031 -83.2644 19° North 127 146 5,500  Level Indianapolis Center
Sat 09:31:18 AM 37.4375 -83.2517 16° North 128 147 5,500  Level Indianapolis Center
Sat 09:32:20 AM 37.4719 -83.2442 10° North 127 146 5,500  Level Indianapolis Center
Sat 09:33:22 AM 37.5042 -83.2269 23° Northeast 126 145 5,500  Level Indianapolis Center
Sat 09:34:23 AM 37.5367 -83.2081 25° Northeast 127 146 5,500  Level Indianapolis Center
Sat 09:35:25 AM 37.5700 -83.1983 13° North 125 144 5,500  Level Indianapolis Center
Sat 09:36:27 AM 37.6042 -83.1844 18° North 125 144 5,500 48 Level Indianapolis Center
Sat 09:37:29 AM 37.6422 -83.1656 21° North 125 144 5,600 48 Climbing Indianapolis Center
Sat 09:38:31 AM 37.6756 -83.1500 20° North 126 145 5,600  Level Indianapolis Center
Sat 09:39:32 AM 37.7089 -83.1358 19° North 127 146 5,600  Level Indianapolis Center
Sat 09:40:34 AM 37.7431 -83.1261 13° North 126 145 5,600  Level Indianapolis Center
Sat 09:41:36 AM 37.7778 -83.1167 12° North 127 146 5,600 -48 Level Indianapolis Center
Sat 09:42:38 AM 37.8106 -83.0989 23° Northeast 126 145 5,500 -48 Descending Indianapolis Center
Sat 09:43:40 AM 37.8436 -83.0797 25° Northeast 128 147 5,500  Level Indianapolis Center
Sat 09:44:41 AM 37.8806 -83.0583 25° Northeast 126 145 5,500 -49 Level Indianapolis Center
Sat 09:45:43 AM 37.9119 -83.0375 28° Northeast 127 146 5,400 -48 Descending Indianapolis Center
Sat 09:46:45 AM 37.9425 -83.0181 27° Northeast 124 143 5,400  Level Indianapolis Center
Sat 09:47:47 AM 37.9728 -83.0006 24° Northeast 120 138 5,400 48 Level Indianapolis Center
Sat 09:48:49 AM 38.0042 -82.9844 22° Northeast 120 138 5,500 145 Climbing Indianapolis Center
Sat 09:49:51 AM 38.0336 -82.9767 12° North 110 127 5,700 97 Climbing Indianapolis Center
Sat 09:50:53 AM 38.0681 -82.9556 26° Northeast 118 136 5,700 -48 Level Indianapolis Center
Sat 09:51:55 AM 38.1011 -82.9353 26° Northeast 130 150 5,600 -48 Descending Indianapolis Center
Sat 09:52:57 AM 38.1319 -82.9147 28° Northeast 127 146 5,600 48 Level Indianapolis Center
Sat 09:53:59 AM 38.1647 -82.9042 14° North 123 142 5,700 49 Climbing Indianapolis Center
Sat 09:55:00 AM 38.1964 -82.8981 North 117 135 5,700  Level Indianapolis Center
Sat 09:56:02 AM 38.2294 -82.9000 357° North 117 135 5,700 -48 Level Indianapolis Center
Sat 09:57:04 AM 38.2689 -82.8878 14° North 123 142 5,600 -145 Descending Indianapolis Center
Sat 09:58:06 AM 38.3025 -82.8811 North 124 143 5,400 -48 Descending Indianapolis Center
Sat 09:59:08 AM 38.3358 -82.8833 357° North 120 138 5,500 97 Climbing Indianapolis Center
Sat 10:00:10 AM 38.3669 -82.8833 360° North 114 131 5,600  Climbing Indianapolis Center
Sat 10:01:11 AM 38.3989 -82.8822 North 116 133 5,500 -49 Descending Indianapolis Center
Sat 10:02:13 AM 38.4328 -82.8747 10° North 121 139 5,500  Level Indianapolis Center
Sat 10:03:15 AM 38.4697 -82.8633 14° North 118 136 5,500  Level Indianapolis Center
Sat 10:04:17 AM 38.5028 -82.8572 North 119 137 5,500  Level Indianapolis Center
Sat 10:05:19 AM 38.5339 -82.8506 10° North 116 133 5,500  Level Indianapolis Center
Sat 10:06:20 AM 38.5656 -82.8408 13° North 116 133 5,500  Level Indianapolis Center
Sat 10:07:22 AM 38.5967 -82.8367 North 111 128 5,500  Level Indianapolis Center
Sat 10:08:24 AM 38.6278 -82.8328 North 112 129 5,500  Level Indianapolis Center
Sat 10:09:26 AM 38.6594 -82.8275 North 113 130 5,500  Level Indianapolis Center
Sat 10:10:28 AM 38.6914 -82.8189 12° North 116 133 5,500 48 Level Indianapolis Center
Sat 10:11:30 AM 38.7281 -82.8081 13° North 114 131 5,600 48 Climbing Indianapolis Center
Sat 10:12:32 AM 38.7600 -82.8017 North 115 132 5,600  Level Indianapolis Center
Sat 10:13:34 AM 38.7906 -82.7953 North 112 129 5,600 -49 Level Indianapolis Center
Sat 10:14:35 AM 38.8236 -82.7939 North 117 135 5,500 -98 Descending Indianapolis Center
Sat 10:15:37 AM 38.8558 -82.7933 North 116 133 5,400 -48 Descending Indianapolis Center
Sat 10:16:39 AM 38.8872 -82.7978 354° North 113 130 5,400 97 Level Indianapolis Center
Sat 10:17:41 AM 38.9172 -82.7961 North 108 124 5,600 97 Climbing Indianapolis Center
Sat 10:18:43 AM 38.9547 -82.7925 North 112 129 5,600  Level Indianapolis Center
Sat 10:19:45 AM 38.9856 -82.7842 12° North 112 129 5,600 -49 Level Indianapolis Center
Sat 10:20:46 AM 39.0172 -82.7842 360° North 114 131 5,500  Descending Indianapolis Center
Sat 10:21:48 AM 39.0481 -82.7792 North 111 128 5,600  Climbing Indianapolis Center
Sat 10:22:50 AM 39.0806 -82.7692 13° North 117 135 5,500 -48 Descending Indianapolis Center
Sat 10:23:52 AM 39.1131 -82.7672 North 118 136 5,500  Level Indianapolis Center
Sat 10:24:54 AM 39.1458 -82.7608 North 118 136 5,500  Level Indianapolis Center
Sat 10:25:56 AM 39.1789 -82.7528 11° North 115 132 5,500 49 Level Indianapolis Center
Sat 10:26:57 AM 39.2114 -82.7433 13° North 118 136 5,600 49 Climbing Indianapolis Center
Sat 10:27:59 AM 39.2436 -82.7372 North 116 133 5,600  Level Indianapolis Center
Sat 10:28:46 AM 39.2733 -82.7364 North 117 135 5,600  Level Indianapolis Center
Sat 10:29:01 AM 39.2825 -82.7347 North 118 136 5,600  Level Indianapolis Center
Sat 10:29:35 AM 39.3000 -82.7447 336° Northwest 120 138 5,600  Level Indianapolis Center
Sat 10:30:03 AM 39.3125 -82.7519 336° Northwest 119 137 5,600 90 Level Indianapolis Center
Sat 10:30:42 AM 39.3300 -82.7642 332° Northwest 113 130 5,700  Climbing Indianapolis Center
Sat 10:31:04 AM 39.3428 -82.7597 15° North 113 130 5,600 -197 Descending Indianapolis Center
Sat 10:31:43 AM 39.3661 -82.7547 North 128 147 5,500 -97 Descending Indianapolis Center
Sat 10:32:06 AM 39.3769 -82.7528 North 121 139 5,500  Level Indianapolis Center
Sat 10:32:44 AM 39.4003 -82.7478 North 122 140 5,500  Level Indianapolis Center
Sat 10:33:08 AM 39.4100 -82.7439 17° North 121 139 5,500 98 Level Indianapolis Center
Sat 10:33:45 AM 39.4319 -82.7431 North 117 135 5,600 97 Climbing Indianapolis Center
Sat 10:34:10 AM 39.4433 -82.7400 12° North 120 138 5,600 -90 Level Indianapolis Center
Sat 10:34:52 AM 39.4700 -82.7367 North 120 138 5,500 -98 Descending Indianapolis Center
Sat 10:35:11 AM 39.4767 -82.7361 North 119 137 5,500 -109 Level Indianapolis Center
Sat 10:35:47 AM 39.4997 -82.7317 North 125 144 5,400 -97 Descending Indianapolis Center
Sat 10:36:13 AM 39.5117 -82.7292 North 123 142 5,400 98 Level Indianapolis Center
Sat 10:36:48 AM 39.5378 -82.7225 11° North 126 145 5,500 194 Climbing Indianapolis Center
Sat 10:37:15 AM 39.5511 -82.7192 11° North 124 143 5,600 200 Climbing Indianapolis Center
Sat 10:37:48 AM 39.5697 -82.7178 North 116 133 5,700 98 Climbing Indianapolis Center
Sat 10:38:16 AM 39.5828 -82.7167 North 117 135 5,700  Level Indianapolis Center
Sat 10:38:55 AM 39.6033 -82.7133 North 116 133 5,700  Level Indianapolis Center
Sat 10:39:18 AM 39.6150 -82.7103 11° North 116 133 5,700 -141 Level Indianapolis Center
Sat 10:40:20 AM 39.6475 -82.7011 12° North 118 136 5,500 -171 Descending Indianapolis Center
Sat 10:41:03 AM 39.6733 -82.6994 North 123 142 5,400  Descending Indianapolis Center
Sat 10:41:21 AM 39.6814 -82.6978 North 121 139 5,500 109 Climbing Indianapolis Center
Sat 10:41:58 AM 39.7033 -82.6892 17° North 116 133 5,500  Level Indianapolis Center
Sat 10:42:23 AM 39.7136 -82.6869 North 118 136 5,500 -98 Level Indianapolis Center
Sat 10:42:59 AM 39.7350 -82.6847 North 116 133 5,400 -97 Descending Indianapolis Center
Sat 10:43:25 AM 39.7472 -82.6817 11° North 120 138 5,400 90 Level Indianapolis Center
Sat 10:44:06 AM 39.7733 -82.6753 11° North 134 154 5,500 98 Climbing Indianapolis Center
Sat 10:44:26 AM 39.7781 -82.6725 24° Northeast 116 133 5,500  Level Indianapolis Center
Sat 10:45:07 AM 39.8031 -82.6678 North 112 129 5,500  Level Indianapolis Center
Sat 10:45:28 AM 39.8106 -82.6661 10° North 116 133 5,500  Level Indianapolis Center
Sat 10:46:02 AM 39.8347 -82.6658 North 117 135 5,500  Level Indianapolis Center
Sat 10:46:30 AM 39.8497 -82.6600 17° North 120 138 5,500 -90 Level Indianapolis Center
Sat 10:47:09 AM 39.8711 -82.6536 13° North 122 140 5,400 -191 Descending Indianapolis Center
Sat 10:48:04 AM 39.8983 -82.6511 North 117 135 5,200  Descending Indianapolis Center
Sat 10:48:33 AM 39.9147 -82.6472 10° North 118 136 5,400 269 Climbing Indianapolis Center
Sat 10:49:11 AM 39.9344 -82.6442 North 105 121 5,500 97 Climbing Indianapolis Center
Sat 10:49:35 AM 39.9453 -82.6422 North 112 129 5,500  Level Indianapolis Center
Sat 10:50:12 AM 39.9642 -82.6367 13° North 113 130 5,500  Level Indianapolis Center
Sat 10:50:36 AM 39.9750 -82.6292 28° Northeast 112 129 5,500  Level Indianapolis Center
Sat 10:51:07 AM 39.9942 -82.6236 13° North 119 137 5,500  Level Indianapolis Center
Sat 10:51:38 AM 40.0072 -82.6214 North 115 132 5,500  Level Indianapolis Center
Sat 10:52:08 AM 40.0258 -82.6217 359° North 115 132 5,500  Level Indianapolis Center
Sat 10:52:40 AM 40.0400 -82.6189 North 116 133 5,500  Level Indianapolis Center
Sat 10:53:15 AM 40.0619 -82.6147 North 113 130 5,500  Level Indianapolis Center
Sat 10:53:41 AM 40.0719 -82.6117 13° North 116 133 5,500 98 Level Indianapolis Center
Sat 10:54:16 AM 40.0917 -82.6069 10° North 113 130 5,600 97 Climbing Indianapolis Center
Sat 10:54:43 AM 40.1025 -82.6053 North 111 128 5,600 -98 Level Indianapolis Center
Sat 10:55:17 AM 40.1231 -82.6078 355° North 112 129 5,500  Descending Indianapolis Center
Sat 10:55:45 AM 40.1336 -82.6119 343° North 112 129 5,600 -90 Climbing Indianapolis Center
Sat 10:56:24 AM 40.1575 -82.6253 337° Northwest 118 136 5,400 -295 Descending Indianapolis Center
Sat 10:56:46 AM 40.1703 -82.6261 357° North 117 135 5,300 109 Descending Indianapolis Center
Sat 10:57:19 AM 40.1864 -82.6283 354° North 118 136 5,500 194 Climbing Indianapolis Center
Sat 10:57:48 AM 40.2008 -82.6311 352° North 113 130 5,500  Level Indianapolis Center
Sat 10:58:13 AM 40.2153 -82.6342 351° North 108 124 5,500 -98 Level Indianapolis Center
Sat 10:58:49 AM 40.2319 -82.6283 15° North 111 128 5,400 -492 Descending Indianapolis Center
Sat 10:59:14 AM 40.2469 -82.6294 357° North 116 133 5,000 -677 Descending Indianapolis Center
Sat 10:59:51 AM 40.2606 -82.6267 North 112 129 4,700 -218 Descending Indianapolis Center
Sat 11:01:04 AM 40.2953 -82.6294 357° North 90 104 4,600 -195 Descending Indianapolis Center
Sat 11:01:54 AM 40.3183 -82.6281 North 98 113 4,300 -268 Descending Indianapolis Center
Sat 11:02:56 AM 40.3489 -82.6292 358° North 105 121 4,100 -293 Descending Indianapolis Center
Sat 11:03:57 AM 40.3817 -82.6350 352° North 113 130 3,700 -244 Descending Indianapolis Center
Sat 11:04:59 AM 40.4169 -82.6397 354° North 123 142 3,600 49 Descending Indianapolis Center
Sat 11:06:00 AM 40.4519 -82.6442 354° North 125 144 3,800 49 Climbing Indianapolis Center
Sat 11:07:02 AM 40.4853 -82.6450 359° North 121 139 3,700 -49 Descending Indianapolis Center
Sat 11:08:03 AM 40.5186 -82.6483 356° North 119 137 3,700 -49 Level Indianapolis Center
Sat 11:09:05 AM 40.5506 -82.6506 357° North 116 133 3,600 -98 Descending Indianapolis Center
Sat 11:10:06 AM 40.5833 -82.6533 356° North 117 135 3,500  Descending Indianapolis Center
Sat 11:11:08 AM 40.6131 -82.6567 355° North 110 127 3,600 98 Climbing Indianapolis Center
Sat 11:12:09 AM 40.6447 -82.6619 353° North 111 128 3,700 98 Climbing Indianapolis Center
Sat 11:13:11 AM 40.6825 -82.6753 345° North 117 135 3,800 48 Climbing Indianapolis Center
Sat 11:14:13 AM 40.7169 -82.6800 354° North 123 142 3,800  Level Indianapolis Center
Sat 11:15:14 AM 40.7506 -82.6856 353° North 122 140 3,800  Level Indianapolis Center

Login

Don't have an account? Register now (free) for customized features, flight alerts, and more!